createdAt,value
2023-05-24T00:01:51.417Z,17.58
2023-05-24T00:04:18.724Z,17.38
2023-05-24T00:06:45.868Z,17.53
2023-05-24T00:09:12.903Z,17.49
2023-05-24T00:11:39.922Z,17.49
2023-05-24T00:14:06.991Z,17.46
2023-05-24T00:16:33.893Z,17.51
2023-05-24T00:19:01.135Z,17.52
2023-05-24T00:21:28.106Z,17.48
2023-05-24T00:23:55.147Z,17.62
2023-05-24T00:26:22.176Z,17.61
2023-05-24T00:28:55.538Z,17.67
2023-05-24T00:31:22.560Z,17.63
2023-05-24T00:33:49.597Z,17.57
2023-05-24T00:36:18.872Z,17.58
2023-05-24T00:38:48.008Z,17.63
2023-05-24T00:41:16.812Z,17.65
2023-05-24T00:43:43.831Z,17.68
2023-05-24T00:46:28.980Z,17.76
2023-05-24T00:48:57.115Z,17.58
2023-05-24T00:51:24.993Z,17.48
2023-05-24T00:53:52.205Z,17.58
2023-05-24T00:56:19.163Z,17.49
2023-05-24T00:58:47.124Z,17.54
2023-05-24T01:01:14.116Z,17.42
2023-05-24T01:03:41.198Z,17.46
2023-05-24T01:06:09.242Z,17.49
2023-05-24T01:08:39.320Z,17.29
2023-05-24T01:11:15.136Z,17.20
2023-05-24T01:14:31.516Z,17.38
2023-05-24T01:17:14.949Z,17.49
2023-05-24T01:19:56.991Z,17.48
2023-05-24T01:22:51.253Z,17.63
2023-05-24T01:25:27.214Z,17.65
2023-05-24T01:27:54.894Z,17.51
2023-05-24T01:30:26.521Z,17.73
2023-05-24T01:32:56.466Z,17.84
2023-05-24T01:35:23.563Z,17.76
2023-05-24T01:37:50.561Z,17.76
2023-05-24T01:40:17.748Z,17.71
2023-05-24T01:43:03.896Z,17.76
2023-05-24T01:45:50.510Z,17.97
2023-05-24T01:48:43.077Z,17.95
2023-05-24T01:51:16.100Z,17.92
2023-05-24T01:53:46.818Z,17.85
2023-05-24T01:56:15.937Z,17.96
2023-05-24T01:58:45.548Z,18.10
2023-05-24T02:01:14.627Z,18.09
2023-05-24T02:03:41.754Z,18.14
2023-05-24T02:06:08.629Z,18.31
2023-05-24T02:08:35.583Z,18.46
2023-05-24T02:11:02.697Z,18.65
2023-05-24T02:13:29.640Z,18.75
2023-05-24T02:15:56.593Z,18.90
2023-05-24T02:18:25.804Z,18.80
2023-05-24T02:20:53.467Z,19.19
2023-05-24T02:23:20.397Z,19.25
2023-05-24T02:25:47.278Z,19.39
2023-05-24T02:28:14.176Z,19.41
2023-05-24T02:30:41.396Z,19.48
2023-05-24T02:33:08.663Z,19.47
2023-05-24T02:35:35.656Z,19.44
2023-05-24T02:38:02.620Z,19.49
2023-05-24T02:40:29.553Z,20.73
2023-05-24T02:42:56.463Z,21.88
2023-05-24T02:45:23.572Z,22.17
2023-05-24T02:47:50.489Z,22.28
2023-05-24T02:50:17.607Z,21.96
2023-05-24T02:52:44.519Z,21.86
2023-05-24T02:55:11.638Z,21.73
2023-05-24T02:57:38.882Z,23.24
2023-05-24T03:00:06.683Z,24.55
2023-05-24T03:02:33.995Z,25.30
2023-05-24T03:05:01.407Z,25.84
2023-05-24T03:07:29.608Z,25.99
2023-05-24T03:09:56.472Z,26.63
2023-05-24T03:12:23.428Z,27.33
2023-05-24T03:14:51.019Z,27.55
2023-05-24T03:17:17.963Z,28.12
2023-05-24T03:19:44.978Z,28.10
2023-05-24T03:22:13.120Z,28.36
2023-05-24T03:24:40.167Z,29.05
2023-05-24T03:27:08.007Z,29.30
2023-05-24T03:29:34.995Z,29.72
2023-05-24T03:32:02.192Z,30.21
2023-05-24T03:34:29.173Z,30.82
2023-05-24T03:36:56.406Z,31.36
2023-05-24T03:39:23.416Z,31.59
2023-05-24T03:41:56.834Z,31.84
2023-05-24T03:44:23.813Z,32.26
2023-05-24T03:46:50.698Z,32.01
2023-05-24T03:49:17.748Z,31.92
2023-05-24T03:51:44.772Z,31.83
2023-05-24T03:54:11.817Z,31.09
2023-05-24T03:56:38.802Z,30.62
2023-05-24T03:59:05.867Z,31.91
2023-05-24T04:01:34.718Z,32.35
2023-05-24T04:04:03.527Z,32.54
2023-05-24T04:06:30.673Z,32.79
2023-05-24T04:09:00.290Z,32.86
2023-05-24T04:11:27.361Z,32.85
2023-05-24T04:13:55.411Z,32.57
2023-05-24T04:16:23.162Z,32.58
2023-05-24T04:18:54.146Z,32.83
2023-05-24T04:21:40.526Z,32.78
2023-05-24T04:24:07.674Z,32.59
2023-05-24T04:26:35.000Z,32.52
2023-05-24T04:29:01.952Z,32.62
2023-05-24T04:31:48.149Z,32.20
2023-05-24T04:34:15.224Z,31.84
2023-05-24T04:36:42.146Z,31.77
2023-05-24T04:39:11.475Z,31.47
2023-05-24T04:41:38.373Z,31.47
2023-05-24T04:44:05.480Z,31.79
2023-05-24T04:46:32.587Z,31.13
2023-05-24T04:48:59.523Z,30.95
2023-05-24T04:51:26.430Z,30.53
2023-05-24T04:53:53.585Z,30.46
2023-05-24T04:56:20.506Z,30.73
2023-05-24T04:58:48.246Z,30.75
2023-05-24T05:01:15.330Z,30.40
2023-05-24T05:03:42.453Z,30.34
2023-05-24T05:06:09.369Z,30.12
2023-05-24T05:08:36.327Z,30.16
2023-05-24T05:11:03.579Z,30.03
2023-05-24T05:13:30.681Z,29.48
2023-05-24T05:16:16.322Z,29.65
2023-05-24T05:18:43.394Z,29.36
2023-05-24T05:21:10.268Z,29.33
2023-05-24T05:23:37.309Z,28.65
2023-05-24T05:26:04.311Z,29.09
2023-05-24T05:28:31.396Z,28.66
2023-05-24T05:31:16.683Z,28.44
2023-05-24T05:33:43.658Z,28.37
2023-05-24T05:36:10.611Z,28.53
2023-05-24T05:38:37.654Z,28.57
2023-05-24T05:41:04.721Z,28.50
2023-05-24T05:43:34.410Z,28.59
2023-05-24T05:46:01.468Z,28.46
2023-05-24T05:48:28.490Z,28.31
2023-05-24T05:51:13.944Z,28.45
2023-05-24T05:53:40.872Z,28.21
2023-05-24T05:56:07.817Z,27.63
2023-05-24T05:58:53.296Z,26.89
2023-05-24T06:01:20.307Z,27.00
2023-05-24T06:03:47.323Z,27.88
2023-05-24T06:06:14.552Z,28.25
2023-05-24T06:08:41.461Z,27.32
2023-05-24T06:11:08.586Z,27.14
2023-05-24T06:13:54.229Z,27.27
2023-05-24T06:16:21.436Z,28.05
2023-05-24T06:19:01.326Z,27.96
2023-05-24T06:21:32.789Z,27.84
2023-05-24T06:24:19.097Z,28.38
2023-05-24T06:26:53.242Z,28.24
2023-05-24T06:29:20.530Z,28.16
2023-05-24T06:31:48.722Z,28.62
2023-05-24T06:34:34.430Z,28.43
2023-05-24T06:37:20.035Z,28.51
2023-05-24T06:39:47.227Z,27.41
2023-05-24T06:42:14.237Z,28.06
2023-05-24T06:44:45.907Z,27.58
2023-05-24T06:47:13.185Z,28.09
2023-05-24T06:49:40.140Z,27.60
2023-05-24T06:52:07.572Z,27.60
2023-05-24T06:54:34.885Z,27.47
2023-05-24T06:57:02.027Z,27.44
2023-05-24T06:59:28.973Z,27.27
2023-05-24T07:02:14.408Z,27.19
2023-05-24T07:04:41.508Z,26.92
2023-05-24T07:07:09.479Z,27.23
2023-05-24T07:09:36.459Z,27.49
2023-05-24T07:12:03.584Z,27.14
2023-05-24T07:14:30.843Z,27.12
2023-05-24T07:16:59.215Z,26.77
2023-05-24T07:19:26.196Z,27.46
2023-05-24T07:21:53.146Z,27.26
2023-05-24T07:24:20.150Z,26.69
2023-05-24T07:26:47.002Z,26.90
2023-05-24T07:29:13.916Z,27.12
2023-05-24T07:31:40.899Z,27.34
2023-05-24T07:34:08.034Z,27.86
2023-05-24T07:36:35.134Z,27.86
2023-05-24T07:39:02.604Z,27.70
2023-05-24T07:41:29.549Z,27.53
2023-05-24T07:43:56.627Z,27.81
2023-05-24T07:46:23.854Z,28.07
2023-05-24T07:48:50.996Z,27.94
2023-05-24T07:51:18.006Z,28.50
2023-05-24T07:53:45.029Z,28.57
2023-05-24T07:56:11.967Z,28.81
2023-05-24T07:58:38.966Z,28.74
2023-05-24T08:01:05.939Z,28.95
2023-05-24T08:03:35.056Z,28.36
2023-05-24T08:06:02.096Z,28.53
2023-05-24T08:08:29.096Z,28.00
2023-05-24T08:10:56.036Z,27.51
2023-05-24T08:13:23.176Z,26.97
2023-05-24T08:15:50.167Z,27.17
2023-05-24T08:18:17.229Z,27.56
2023-05-24T08:20:44.297Z,28.05
2023-05-24T08:23:11.503Z,27.81
2023-05-24T08:25:38.489Z,27.68
2023-05-24T08:28:05.581Z,28.38
2023-05-24T08:30:32.546Z,28.77
2023-05-24T08:32:59.623Z,29.00
2023-05-24T08:35:26.642Z,28.57
2023-05-24T08:37:53.696Z,27.99
2023-05-24T08:40:20.750Z,27.73
2023-05-24T08:42:49.635Z,27.96
2023-05-24T08:45:18.478Z,28.21
2023-05-24T08:47:47.678Z,28.22
2023-05-24T08:50:15.263Z,28.71
2023-05-24T08:52:43.757Z,28.97
2023-05-24T08:55:11.763Z,29.03
2023-05-24T08:57:40.017Z,29.23
2023-05-24T09:00:11.372Z,29.33
2023-05-24T09:02:40.383Z,28.88
2023-05-24T09:05:11.277Z,28.54
2023-05-24T09:07:38.872Z,28.95
2023-05-24T09:10:08.357Z,29.48
2023-05-24T09:12:39.034Z,28.46
2023-05-24T09:15:08.816Z,28.20
2023-05-24T09:17:37.763Z,28.21
2023-05-24T09:20:09.523Z,27.97
2023-05-24T09:22:40.832Z,28.00
2023-05-24T09:25:09.289Z,27.69
2023-05-24T09:27:36.346Z,27.45
2023-05-24T09:30:04.218Z,27.64
2023-05-24T09:32:31.686Z,27.19
2023-05-24T09:34:59.386Z,27.29
2023-05-24T09:37:31.788Z,27.32
2023-05-24T09:40:00.278Z,27.21
2023-05-24T09:42:27.879Z,27.48
2023-05-24T09:45:07.978Z,27.23
2023-05-24T09:47:42.453Z,27.12
2023-05-24T09:50:15.053Z,27.13
2023-05-24T09:52:42.298Z,27.28
2023-05-24T09:55:27.942Z,27.38
2023-05-24T09:58:13.468Z,27.55
2023-05-24T10:00:42.271Z,27.56
2023-05-24T10:03:11.509Z,27.34
2023-05-24T10:05:44.214Z,27.12
2023-05-24T10:08:12.419Z,27.32
2023-05-24T10:10:39.502Z,27.20
2023-05-24T10:13:06.550Z,27.37
2023-05-24T10:15:33.436Z,27.60
2023-05-24T10:18:00.470Z,28.04
2023-05-24T10:20:27.656Z,27.90
2023-05-24T10:23:07.815Z,27.49
2023-05-24T10:25:38.260Z,28.10
2023-05-24T10:28:10.137Z,28.29
2023-05-24T10:30:58.751Z,27.90
2023-05-24T10:33:26.518Z,27.60
2023-05-24T10:35:54.594Z,27.59
2023-05-24T10:38:23.670Z,27.74
2023-05-24T10:40:51.483Z,27.49
2023-05-24T10:43:18.741Z,27.66
2023-05-24T10:45:49.727Z,27.66
2023-05-24T10:48:16.738Z,27.47
2023-05-24T10:50:44.812Z,26.89
2023-05-24T10:53:14.401Z,27.31
2023-05-24T10:55:57.866Z,27.24
2023-05-24T10:58:57.140Z,27.64
2023-05-24T11:01:29.113Z,27.42
2023-05-24T11:04:12.789Z,27.68
2023-05-24T11:07:07.282Z,27.82
2023-05-24T11:09:34.360Z,27.89
2023-05-24T11:12:08.105Z,27.88
2023-05-24T11:14:40.092Z,28.06
2023-05-24T11:17:08.379Z,28.52
2023-05-24T11:19:45.736Z,28.17
2023-05-24T11:22:14.577Z,28.33
2023-05-24T11:24:42.640Z,27.86
2023-05-24T11:27:12.455Z,28.08
2023-05-24T11:29:47.534Z,28.31
2023-05-24T11:32:20.011Z,28.36
2023-05-24T11:34:47.906Z,28.41
2023-05-24T11:37:17.182Z,28.67
2023-05-24T11:39:50.995Z,28.58
2023-05-24T11:42:18.057Z,28.80
2023-05-24T11:44:48.432Z,28.58
2023-05-24T11:47:15.617Z,28.81
2023-05-24T11:49:42.560Z,28.35
2023-05-24T11:52:09.677Z,28.22
2023-05-24T11:54:36.697Z,28.08
2023-05-24T11:57:03.918Z,28.14
2023-05-24T11:59:30.929Z,28.35
2023-05-24T12:02:07.483Z,28.30
2023-05-24T12:04:35.197Z,28.42
2023-05-24T12:07:02.839Z,28.53
2023-05-24T12:09:30.051Z,28.54
2023-05-24T12:11:57.001Z,28.10
2023-05-24T12:14:33.095Z,28.57
2023-05-24T12:17:00.459Z,28.86
2023-05-24T12:19:33.868Z,28.81
2023-05-24T12:22:05.815Z,28.84
2023-05-24T12:24:32.887Z,28.76
2023-05-24T12:27:01.756Z,28.89
2023-05-24T12:29:37.176Z,28.49
2023-05-24T12:32:04.813Z,28.48
2023-05-24T12:34:32.849Z,28.37
2023-05-24T12:37:00.197Z,28.40
2023-05-24T12:39:30.799Z,28.51
2023-05-24T12:41:59.434Z,28.31
2023-05-24T12:44:34.963Z,28.20
2023-05-24T12:47:04.111Z,28.39
2023-05-24T12:49:31.727Z,28.69
2023-05-24T12:51:59.234Z,28.61
2023-05-24T12:54:27.986Z,28.31
2023-05-24T12:56:57.291Z,28.29
2023-05-24T12:59:26.182Z,28.12
2023-05-24T13:01:53.615Z,27.97
2023-05-24T13:04:22.962Z,28.26
2023-05-24T13:06:50.001Z,28.63
2023-05-24T13:09:17.151Z,28.75
2023-05-24T13:11:44.174Z,28.40
2023-05-24T13:14:11.110Z,28.39
2023-05-24T13:16:38.057Z,28.35
2023-05-24T13:19:05.078Z,28.43
2023-05-24T13:21:32.280Z,28.62
2023-05-24T13:23:59.245Z,28.37
2023-05-24T13:26:26.253Z,28.33
2023-05-24T13:29:26.723Z,28.49
2023-05-24T13:31:40.720Z,28.36
2023-05-24T13:34:08.488Z,28.41
2023-05-24T13:36:35.827Z,28.63
2023-05-24T13:39:14.886Z,28.46
2023-05-24T13:41:44.214Z,28.45
2023-05-24T13:44:15.435Z,28.58
2023-05-24T13:46:43.511Z,28.67
2023-05-24T13:49:11.488Z,28.65
2023-05-24T13:51:39.146Z,28.60
2023-05-24T13:54:06.531Z,28.65
2023-05-24T13:56:33.717Z,28.24
2023-05-24T13:59:02.088Z,28.21
2023-05-24T14:01:29.494Z,28.20
2023-05-24T14:03:56.469Z,27.99
2023-05-24T14:06:23.779Z,27.96
2023-05-24T14:08:50.680Z,28.07
2023-05-24T14:11:17.710Z,28.02
2023-05-24T14:16:14.908Z,27.64
2023-05-24T14:18:42.116Z,27.53
2023-05-24T14:21:09.360Z,27.52
2023-05-24T14:23:36.397Z,27.24
2023-05-24T14:26:03.627Z,27.13
2023-05-24T14:28:30.594Z,27.20
2023-05-24T14:30:57.738Z,27.16
2023-05-24T14:33:24.830Z,27.11
2023-05-24T14:35:52.055Z,27.08
2023-05-24T14:38:19.194Z,27.06
2023-05-24T14:40:46.470Z,26.99
2023-05-24T14:43:13.722Z,26.98
2023-05-24T14:45:41.240Z,26.91
2023-05-24T14:48:09.159Z,27.07
2023-05-24T14:50:36.320Z,27.10
2023-05-24T14:53:03.319Z,27.25
2023-05-24T14:55:30.320Z,27.33
2023-05-24T14:57:57.232Z,27.32
2023-05-24T15:00:26.267Z,27.30
2023-05-24T15:02:54.882Z,27.31
2023-05-24T15:05:21.857Z,27.29
2023-05-24T15:07:48.910Z,27.37
2023-05-24T15:10:16.261Z,27.23
2023-05-24T15:12:43.339Z,27.27
2023-05-24T15:15:10.896Z,27.24
2023-05-24T15:17:37.918Z,27.15
2023-05-24T15:20:05.284Z,27.09
2023-05-24T15:22:32.185Z,27.19
2023-05-24T15:24:59.179Z,27.26
2023-05-24T15:27:27.726Z,27.08
2023-05-24T15:29:54.877Z,27.00
2023-05-24T15:32:21.809Z,27.02
2023-05-24T15:34:48.695Z,26.98
2023-05-24T15:37:15.672Z,27.05
2023-05-24T15:39:42.656Z,27.17
2023-05-24T15:42:09.799Z,27.11
2023-05-24T15:44:36.823Z,27.19
2023-05-24T15:47:03.972Z,27.17
2023-05-24T15:49:31.126Z,27.19
2023-05-24T15:52:04.289Z,27.13
2023-05-24T15:54:32.265Z,27.12
2023-05-24T15:56:59.270Z,27.05
2023-05-24T15:59:26.284Z,27.01
2023-05-24T16:01:53.279Z,27.03
2023-05-24T16:04:20.559Z,26.88
2023-05-24T16:06:47.528Z,26.98
2023-05-24T16:09:14.620Z,26.96
2023-05-24T16:11:41.589Z,26.92
2023-05-24T16:14:08.620Z,26.81
2023-05-24T16:16:35.705Z,26.76
2023-05-24T16:19:02.784Z,26.66
2023-05-24T16:21:29.685Z,26.46
2023-05-24T16:23:56.660Z,26.54
2023-05-24T16:26:23.628Z,26.36
2023-05-24T16:28:50.769Z,26.23
2023-05-24T16:31:17.883Z,26.22
2023-05-24T16:33:45.068Z,26.21
2023-05-24T16:36:12.053Z,26.33
2023-05-24T16:38:39.230Z,26.17
2023-05-24T16:41:06.128Z,26.30
2023-05-24T16:43:33.257Z,26.18
2023-05-24T16:46:01.507Z,26.11
2023-05-24T16:48:28.970Z,25.93
2023-05-24T16:50:56.219Z,24.52
2023-05-24T16:53:24.116Z,23.43
2023-05-24T16:55:51.246Z,22.58
2023-05-24T16:58:18.217Z,22.07
2023-05-24T17:00:45.227Z,21.45
2023-05-24T17:03:12.397Z,21.28
2023-05-24T17:05:39.637Z,20.70
2023-05-24T17:08:06.890Z,20.77
2023-05-24T17:10:34.293Z,20.55
2023-05-24T17:13:01.243Z,20.14
2023-05-24T17:15:28.198Z,19.93
2023-05-24T17:17:55.824Z,20.06
2023-05-24T17:20:22.998Z,19.48
2023-05-24T17:22:50.106Z,19.40
2023-05-24T17:25:17.296Z,19.11
2023-05-24T17:27:44.278Z,18.89
2023-05-24T17:30:11.751Z,18.68
2023-05-24T17:32:38.775Z,18.42
2023-05-24T17:35:05.845Z,18.40
2023-05-24T17:37:32.811Z,18.53
2023-05-24T17:39:59.713Z,18.53
2023-05-24T17:42:26.705Z,18.56
2023-05-24T17:44:53.669Z,18.59
2023-05-24T17:47:20.674Z,18.55
2023-05-24T17:49:47.833Z,18.78
2023-05-24T17:52:14.915Z,18.85
2023-05-24T17:54:41.903Z,18.99
2023-05-24T17:57:08.972Z,19.16
2023-05-24T17:59:35.961Z,19.33
2023-05-24T18:02:03.674Z,19.52
2023-05-24T18:04:30.666Z,19.67
2023-05-24T18:06:57.710Z,19.70
2023-05-24T18:09:43.234Z,19.70
2023-05-24T18:12:28.975Z,19.71
2023-05-24T18:14:55.975Z,19.90
2023-05-24T18:17:41.694Z,20.03
2023-05-24T18:20:27.526Z,20.12
2023-05-24T18:22:54.523Z,19.97
2023-05-24T18:25:21.479Z,19.85
2023-05-24T18:27:48.582Z,19.54
2023-05-24T18:30:15.739Z,19.31
2023-05-24T18:32:56.019Z,19.22
2023-05-24T18:35:29.758Z,18.77
2023-05-24T18:37:56.715Z,18.63
2023-05-24T18:40:23.749Z,18.17
2023-05-24T18:42:51.400Z,18.27
2023-05-24T18:45:18.587Z,18.35
2023-05-24T18:47:45.587Z,18.16
2023-05-24T18:50:12.860Z,18.20
2023-05-24T18:52:39.871Z,18.22
2023-05-24T18:55:07.230Z,18.01
2023-05-24T18:57:52.931Z,17.76
2023-05-24T19:00:20.049Z,17.90
2023-05-24T19:02:47.100Z,17.86
2023-05-24T19:05:14.292Z,18.00
2023-05-24T19:07:41.416Z,17.63
2023-05-24T19:10:08.899Z,17.77
2023-05-24T19:12:36.004Z,17.89
2023-05-24T19:15:03.304Z,17.73
2023-05-24T19:17:30.289Z,17.79
2023-05-24T19:19:57.323Z,17.63
2023-05-24T19:22:24.198Z,17.40
2023-05-24T19:24:51.149Z,17.23
2023-05-24T19:27:18.120Z,17.26
2023-05-24T19:29:45.288Z,17.44
2023-05-24T19:32:12.352Z,17.34
2023-05-24T19:34:57.878Z,17.33
2023-05-24T19:37:24.929Z,17.30
2023-05-24T19:39:51.852Z,17.36
2023-05-24T19:42:18.886Z,17.21
2023-05-24T19:44:46.041Z,17.25
2023-05-24T19:47:13.093Z,17.20
2023-05-24T19:49:40.054Z,17.34
2023-05-24T19:52:07.185Z,17.44
2023-05-24T19:54:34.060Z,17.48
2023-05-24T19:57:01.165Z,17.52
2023-05-24T19:59:28.175Z,17.65
2023-05-24T20:01:55.458Z,17.44
2023-05-24T20:04:23.516Z,17.50
2023-05-24T20:06:52.849Z,17.17
2023-05-24T20:09:19.814Z,17.12
2023-05-24T20:11:46.735Z,17.44
2023-05-24T20:14:13.732Z,17.12
2023-05-24T20:16:40.844Z,17.42
2023-05-24T20:19:07.892Z,17.15
2023-05-24T20:21:34.863Z,17.43
2023-05-24T20:24:01.780Z,17.11
2023-05-24T20:26:28.740Z,16.92
2023-05-24T20:28:55.697Z,17.07
2023-05-24T20:31:22.830Z,17.12
2023-05-24T20:33:50.376Z,17.09
2023-05-24T20:36:17.551Z,16.93
2023-05-24T20:38:44.600Z,17.00
2023-05-24T20:41:26.361Z,16.88
2023-05-24T20:43:53.377Z,16.87
2023-05-24T20:46:20.364Z,16.82
2023-05-24T20:48:47.397Z,16.81
2023-05-24T20:51:14.431Z,16.69
2023-05-24T20:53:41.389Z,16.69
2023-05-24T20:56:08.388Z,16.75
2023-05-24T20:58:35.511Z,16.75
2023-05-24T21:01:02.495Z,16.80
2023-05-24T21:03:29.572Z,16.88
2023-05-24T21:05:56.688Z,16.94
2023-05-24T21:08:23.694Z,16.73
2023-05-24T21:10:50.577Z,16.80
2023-05-24T21:13:36.221Z,17.09
2023-05-24T21:16:03.264Z,16.95
2023-05-24T21:18:30.252Z,17.01
2023-05-24T21:20:57.277Z,16.98
2023-05-24T21:23:24.189Z,16.95
2023-05-24T21:25:51.751Z,16.64
2023-05-24T21:28:18.914Z,16.62
2023-05-24T21:30:45.968Z,16.80
2023-05-24T21:33:12.965Z,16.91
2023-05-24T21:35:40.110Z,16.79
2023-05-24T21:38:07.051Z,16.81
2023-05-24T21:40:34.062Z,16.76
2023-05-24T21:43:01.028Z,16.74
2023-05-24T21:45:28.072Z,16.79
2023-05-24T21:47:55.144Z,16.49
2023-05-24T21:50:22.780Z,16.63
2023-05-24T21:52:49.714Z,16.53
2023-05-24T21:55:16.940Z,16.58
2023-05-24T21:57:43.925Z,16.50
2023-05-24T22:00:11.697Z,16.50
2023-05-24T22:02:38.716Z,16.35
2023-05-24T22:05:05.932Z,16.29
2023-05-24T22:07:32.871Z,16.67
2023-05-24T22:09:59.778Z,16.61
2023-05-24T22:12:26.718Z,16.49
2023-05-24T22:14:53.759Z,16.38
2023-05-24T22:17:20.705Z,16.28
2023-05-24T22:19:48.288Z,16.25
2023-05-24T22:22:15.360Z,16.47
2023-05-24T22:24:42.386Z,16.43
2023-05-24T22:27:09.281Z,16.48
2023-05-24T22:29:36.279Z,16.22
2023-05-24T22:32:03.443Z,16.24
2023-05-24T22:34:31.092Z,16.25
2023-05-24T22:36:58.130Z,16.33
2023-05-24T22:39:25.508Z,16.32
2023-05-24T22:41:53.676Z,16.36
2023-05-24T22:44:20.819Z,16.33
2023-05-24T22:46:48.547Z,16.41
2023-05-24T22:49:16.446Z,16.58
2023-05-24T22:51:43.315Z,16.58
2023-05-24T22:54:11.529Z,16.51
2023-05-24T22:56:39.066Z,16.55
2023-05-24T22:59:06.746Z,16.72
2023-05-24T23:01:34.045Z,16.79
2023-05-24T23:04:15.873Z,16.66
2023-05-24T23:06:46.383Z,16.66
2023-05-24T23:09:13.436Z,16.62
2023-05-24T23:11:40.702Z,16.59
2023-05-24T23:14:07.643Z,16.58
2023-05-24T23:16:35.488Z,16.58
2023-05-24T23:19:02.474Z,16.73
2023-05-24T23:21:29.496Z,16.48
2023-05-24T23:23:56.479Z,16.67
2023-05-24T23:26:23.498Z,16.80
2023-05-24T23:28:58.927Z,16.62
2023-05-24T23:31:25.975Z,16.69
2023-05-24T23:33:52.941Z,16.66
2023-05-24T23:36:20.521Z,16.50
2023-05-24T23:38:47.434Z,16.53
2023-05-24T23:41:14.432Z,16.56
2023-05-24T23:43:41.397Z,16.79
2023-05-24T23:46:08.417Z,16.81
2023-05-24T23:48:35.314Z,16.84
2023-05-24T23:51:02.386Z,16.85
2023-05-24T23:53:29.376Z,16.70
2023-05-24T23:55:56.319Z,16.65
2023-05-24T23:58:23.232Z,16.80
